sensor_id;sensor_type;location;lat;lon;timestamp;P1;durP1;ratioP1;P2;durP2;ratioP2
35667;SDS011;22158;59.280;17.806;2022-08-19T00:01:47;23.27;;;17.25;;
35667;SDS011;22158;59.280;17.806;2022-08-19T00:04:15;22.60;;;16.98;;
35667;SDS011;22158;59.280;17.806;2022-08-19T00:06:42;28.45;;;18.00;;
35667;SDS011;22158;59.280;17.806;2022-08-19T00:09:12;23.85;;;17.77;;
35667;SDS011;22158;59.280;17.806;2022-08-19T00:11:41;24.95;;;18.60;;
35667;SDS011;22158;59.280;17.806;2022-08-19T00:14:10;25.67;;;17.52;;
35667;SDS011;22158;59.280;17.806;2022-08-19T00:16:37;22.73;;;18.50;;
35667;SDS011;22158;59.280;17.806;2022-08-19T00:19:04;23.77;;;17.38;;
35667;SDS011;22158;59.280;17.806;2022-08-19T00:21:31;24.20;;;18.38;;
35667;SDS011;22158;59.280;17.806;2022-08-19T00:23:56;26.17;;;19.50;;
35667;SDS011;22158;59.280;17.806;2022-08-19T00:26:23;25.70;;;17.55;;
35667;SDS011;22158;59.280;17.806;2022-08-19T00:28:50;27.17;;;17.80;;
35667;SDS011;22158;59.280;17.806;2022-08-19T00:31:16;25.85;;;19.02;;
35667;SDS011;22158;59.280;17.806;2022-08-19T00:33:42;27.90;;;19.17;;
35667;SDS011;22158;59.280;17.806;2022-08-19T00:36:08;25.08;;;19.05;;
35667;SDS011;22158;59.280;17.806;2022-08-19T00:38:36;21.88;;;17.45;;
35667;SDS011;22158;59.280;17.806;2022-08-19T00:41:06;26.40;;;17.05;;
35667;SDS011;22158;59.280;17.806;2022-08-19T00:43:33;25.45;;;18.15;;
35667;SDS011;22158;59.280;17.806;2022-08-19T00:45:59;24.50;;;18.20;;
35667;SDS011;22158;59.280;17.806;2022-08-19T00:48:29;23.67;;;18.02;;
35667;SDS011;22158;59.280;17.806;2022-08-19T00:50:57;22.58;;;17.45;;
35667;SDS011;22158;59.280;17.806;2022-08-19T00:53:24;27.25;;;18.80;;
35667;SDS011;22158;59.280;17.806;2022-08-19T00:55:52;26.98;;;19.48;;
35667;SDS011;22158;59.280;17.806;2022-08-19T00:58:22;29.10;;;18.00;;
35667;SDS011;22158;59.280;17.806;2022-08-19T01:00:52;27.13;;;19.33;;
35667;SDS011;22158;59.280;17.806;2022-08-19T01:03:19;26.58;;;18.23;;
35667;SDS011;22158;59.280;17.806;2022-08-19T01:05:46;29.42;;;19.10;;
35667;SDS011;22158;59.280;17.806;2022-08-19T01:08:15;30.85;;;18.77;;
35667;SDS011;22158;59.280;17.806;2022-08-19T01:10:50;28.67;;;18.80;;
35667;SDS011;22158;59.280;17.806;2022-08-19T01:13:21;31.15;;;18.65;;
35667;SDS011;22158;59.280;17.806;2022-08-19T01:15:54;27.35;;;20.15;;
35667;SDS011;22158;59.280;17.806;2022-08-19T01:18:22;29.25;;;19.20;;
35667;SDS011;22158;59.280;17.806;2022-08-19T01:20:50;25.92;;;18.02;;
35667;SDS011;22158;59.280;17.806;2022-08-19T01:23:17;29.70;;;19.30;;
35667;SDS011;22158;59.280;17.806;2022-08-19T01:25:52;33.55;;;19.65;;
35667;SDS011;22158;59.280;17.806;2022-08-19T01:28:20;31.83;;;19.95;;
35667;SDS011;22158;59.280;17.806;2022-08-19T01:30:50;31.98;;;20.23;;
35667;SDS011;22158;59.280;17.806;2022-08-19T01:33:19;34.35;;;20.33;;
35667;SDS011;22158;59.280;17.806;2022-08-19T01:35:45;33.13;;;20.25;;
35667;SDS011;22158;59.280;17.806;2022-08-19T01:38:26;29.13;;;19.07;;
35667;SDS011;22158;59.280;17.806;2022-08-19T01:40:53;28.33;;;20.17;;
35667;SDS011;22158;59.280;17.806;2022-08-19T01:43:19;26.38;;;18.58;;
35667;SDS011;22158;59.280;17.806;2022-08-19T01:45:46;25.38;;;18.52;;
35667;SDS011;22158;59.280;17.806;2022-08-19T01:48:11;26.38;;;18.48;;
35667;SDS011;22158;59.280;17.806;2022-08-19T01:50:38;30.63;;;19.25;;
35667;SDS011;22158;59.280;17.806;2022-08-19T01:53:05;35.50;;;18.52;;
35667;SDS011;22158;59.280;17.806;2022-08-19T01:55:33;31.13;;;19.42;;
35667;SDS011;22158;59.280;17.806;2022-08-19T01:58:04;28.17;;;19.50;;
35667;SDS011;22158;59.280;17.806;2022-08-19T02:00:32;28.17;;;18.98;;
35667;SDS011;22158;59.280;17.806;2022-08-19T02:02:58;28.98;;;17.67;;
35667;SDS011;22158;59.280;17.806;2022-08-19T02:05:26;30.80;;;18.90;;
35667;SDS011;22158;59.280;17.806;2022-08-19T02:07:54;34.13;;;20.25;;
35667;SDS011;22158;59.280;17.806;2022-08-19T02:10:21;29.45;;;20.15;;
35667;SDS011;22158;59.280;17.806;2022-08-19T02:12:47;27.75;;;18.67;;
35667;SDS011;22158;59.280;17.806;2022-08-19T02:15:14;29.73;;;19.35;;
35667;SDS011;22158;59.280;17.806;2022-08-19T02:17:40;25.55;;;18.10;;
35667;SDS011;22158;59.280;17.806;2022-08-19T02:20:06;27.50;;;19.10;;
35667;SDS011;22158;59.280;17.806;2022-08-19T02:22:33;28.80;;;17.42;;
35667;SDS011;22158;59.280;17.806;2022-08-19T02:25:00;28.15;;;17.42;;
35667;SDS011;22158;59.280;17.806;2022-08-19T02:27:26;28.85;;;18.48;;
35667;SDS011;22158;59.280;17.806;2022-08-19T02:29:52;27.35;;;17.05;;
35667;SDS011;22158;59.280;17.806;2022-08-19T02:32:18;26.27;;;18.73;;
35667;SDS011;22158;59.280;17.806;2022-08-19T02:34:45;26.63;;;20.52;;
35667;SDS011;22158;59.280;17.806;2022-08-19T02:37:11;34.35;;;21.38;;
35667;SDS011;22158;59.280;17.806;2022-08-19T02:39:57;26.67;;;17.63;;
35667;SDS011;22158;59.280;17.806;2022-08-19T02:42:23;29.77;;;19.80;;
35667;SDS011;22158;59.280;17.806;2022-08-19T02:44:48;32.63;;;21.42;;
35667;SDS011;22158;59.280;17.806;2022-08-19T02:47:14;35.35;;;22.17;;
35667;SDS011;22158;59.280;17.806;2022-08-19T02:49:40;29.88;;;20.95;;
35667;SDS011;22158;59.280;17.806;2022-08-19T02:52:06;29.50;;;19.92;;
35667;SDS011;22158;59.280;17.806;2022-08-19T02:54:32;28.52;;;19.55;;
35667;SDS011;22158;59.280;17.806;2022-08-19T02:56:58;26.50;;;19.45;;
35667;SDS011;22158;59.280;17.806;2022-08-19T02:59:23;24.52;;;18.00;;
35667;SDS011;22158;59.280;17.806;2022-08-19T03:01:51;26.90;;;16.67;;
35667;SDS011;22158;59.280;17.806;2022-08-19T03:04:17;30.83;;;21.25;;
35667;SDS011;22158;59.280;17.806;2022-08-19T03:06:45;26.63;;;19.75;;
35667;SDS011;22158;59.280;17.806;2022-08-19T03:09:12;27.98;;;20.17;;
35667;SDS011;22158;59.280;17.806;2022-08-19T03:11:38;29.42;;;18.55;;
35667;SDS011;22158;59.280;17.806;2022-08-19T03:14:05;29.02;;;19.08;;
35667;SDS011;22158;59.280;17.806;2022-08-19T03:16:34;26.20;;;18.92;;
35667;SDS011;22158;59.280;17.806;2022-08-19T03:19:05;27.73;;;18.55;;
35667;SDS011;22158;59.280;17.806;2022-08-19T03:21:31;28.85;;;19.60;;
35667;SDS011;22158;59.280;17.806;2022-08-19T03:23:59;29.50;;;20.23;;
35667;SDS011;22158;59.280;17.806;2022-08-19T03:28:55;32.80;;;18.17;;
35667;SDS011;22158;59.280;17.806;2022-08-19T03:31:21;30.48;;;19.67;;
35667;SDS011;22158;59.280;17.806;2022-08-19T03:33:48;34.75;;;20.50;;
35667;SDS011;22158;59.280;17.806;2022-08-19T03:36:16;32.03;;;21.58;;
35667;SDS011;22158;59.280;17.806;2022-08-19T03:38:47;29.73;;;20.40;;
35667;SDS011;22158;59.280;17.806;2022-08-19T03:41:24;34.20;;;20.55;;
35667;SDS011;22158;59.280;17.806;2022-08-19T03:43:56;29.40;;;19.13;;
35667;SDS011;22158;59.280;17.806;2022-08-19T03:46:24;30.48;;;20.75;;
35667;SDS011;22158;59.280;17.806;2022-08-19T03:48:52;25.97;;;19.37;;
35667;SDS011;22158;59.280;17.806;2022-08-19T03:51:27;31.88;;;19.67;;
35667;SDS011;22158;59.280;17.806;2022-08-19T03:53:56;31.58;;;20.58;;
35667;SDS011;22158;59.280;17.806;2022-08-19T03:56:23;29.08;;;19.67;;
35667;SDS011;22158;59.280;17.806;2022-08-19T03:58:56;24.23;;;18.10;;
35667;SDS011;22158;59.280;17.806;2022-08-19T04:01:23;33.25;;;20.98;;
35667;SDS011;22158;59.280;17.806;2022-08-19T04:03:51;27.67;;;18.65;;
35667;SDS011;22158;59.280;17.806;2022-08-19T04:06:26;30.38;;;19.65;;
35667;SDS011;22158;59.280;17.806;2022-08-19T04:08:55;28.13;;;19.60;;
35667;SDS011;22158;59.280;17.806;2022-08-19T04:11:24;34.72;;;21.85;;
35667;SDS011;22158;59.280;17.806;2022-08-19T04:13:52;36.78;;;22.95;;
35667;SDS011;22158;59.280;17.806;2022-08-19T04:16:20;31.63;;;19.45;;
35667;SDS011;22158;59.280;17.806;2022-08-19T04:18:47;28.65;;;19.25;;
35667;SDS011;22158;59.280;17.806;2022-08-19T04:21:18;31.98;;;20.67;;
35667;SDS011;22158;59.280;17.806;2022-08-19T04:23:45;33.88;;;20.88;;
35667;SDS011;22158;59.280;17.806;2022-08-19T04:26:13;31.45;;;21.75;;
35667;SDS011;22158;59.280;17.806;2022-08-19T04:28:40;34.33;;;21.10;;
35667;SDS011;22158;59.280;17.806;2022-08-19T04:31:11;29.85;;;20.10;;
35667;SDS011;22158;59.280;17.806;2022-08-19T04:33:39;35.35;;;21.02;;
35667;SDS011;22158;59.280;17.806;2022-08-19T04:36:05;30.02;;;20.23;;
35667;SDS011;22158;59.280;17.806;2022-08-19T04:38:31;33.58;;;21.17;;
35667;SDS011;22158;59.280;17.806;2022-08-19T04:40:56;34.97;;;21.40;;
35667;SDS011;22158;59.280;17.806;2022-08-19T04:43:40;33.20;;;20.63;;
35667;SDS011;22158;59.280;17.806;2022-08-19T04:46:07;36.42;;;22.15;;
35667;SDS011;22158;59.280;17.806;2022-08-19T04:48:35;31.55;;;20.42;;
35667;SDS011;22158;59.280;17.806;2022-08-19T04:51:05;29.75;;;19.02;;
35667;SDS011;22158;59.280;17.806;2022-08-19T04:53:35;31.27;;;21.92;;
35667;SDS011;22158;59.280;17.806;2022-08-19T04:56:07;32.80;;;21.08;;
35667;SDS011;22158;59.280;17.806;2022-08-19T04:58:35;31.02;;;20.70;;
35667;SDS011;22158;59.280;17.806;2022-08-19T05:01:02;29.73;;;20.70;;
35667;SDS011;22158;59.280;17.806;2022-08-19T05:03:28;30.55;;;20.83;;
35667;SDS011;22158;59.280;17.806;2022-08-19T05:05:57;32.28;;;22.08;;
35667;SDS011;22158;59.280;17.806;2022-08-19T05:08:23;33.63;;;21.45;;
35667;SDS011;22158;59.280;17.806;2022-08-19T05:10:50;33.10;;;20.38;;
35667;SDS011;22158;59.280;17.806;2022-08-19T05:13:17;33.85;;;20.67;;
35667;SDS011;22158;59.280;17.806;2022-08-19T05:15:44;32.35;;;21.80;;
35667;SDS011;22158;59.280;17.806;2022-08-19T05:18:18;31.05;;;21.27;;
35667;SDS011;22158;59.280;17.806;2022-08-19T05:21:05;36.53;;;21.63;;
35667;SDS011;22158;59.280;17.806;2022-08-19T05:26:18;28.25;;;19.77;;
35667;SDS011;22158;59.280;17.806;2022-08-19T05:28:44;32.55;;;20.42;;
35667;SDS011;22158;59.280;17.806;2022-08-19T05:31:10;30.23;;;21.88;;
35667;SDS011;22158;59.280;17.806;2022-08-19T05:33:35;30.60;;;20.90;;
35667;SDS011;22158;59.280;17.806;2022-08-19T05:36:02;30.80;;;22.67;;
35667;SDS011;22158;59.280;17.806;2022-08-19T05:38:28;31.17;;;21.10;;
35667;SDS011;22158;59.280;17.806;2022-08-19T05:40:54;34.05;;;23.15;;
35667;SDS011;22158;59.280;17.806;2022-08-19T05:43:20;33.72;;;23.52;;
35667;SDS011;22158;59.280;17.806;2022-08-19T05:45:46;31.75;;;21.67;;
35667;SDS011;22158;59.280;17.806;2022-08-19T05:48:12;34.30;;;21.67;;
35667;SDS011;22158;59.280;17.806;2022-08-19T05:50:39;27.92;;;19.23;;
35667;SDS011;22158;59.280;17.806;2022-08-19T05:53:06;32.58;;;21.23;;
35667;SDS011;22158;59.280;17.806;2022-08-19T05:55:33;27.70;;;20.17;;
35667;SDS011;22158;59.280;17.806;2022-08-19T05:57:59;28.88;;;19.42;;
35667;SDS011;22158;59.280;17.806;2022-08-19T06:00:26;31.88;;;20.77;;
35667;SDS011;22158;59.280;17.806;2022-08-19T06:02:52;28.45;;;20.52;;
35667;SDS011;22158;59.280;17.806;2022-08-19T06:05:19;31.60;;;20.08;;
35667;SDS011;22158;59.280;17.806;2022-08-19T06:07:45;28.67;;;19.98;;
35667;SDS011;22158;59.280;17.806;2022-08-19T06:10:10;32.65;;;20.02;;
35667;SDS011;22158;59.280;17.806;2022-08-19T06:12:36;34.67;;;20.48;;
35667;SDS011;22158;59.280;17.806;2022-08-19T06:15:04;27.75;;;19.17;;
35667;SDS011;22158;59.280;17.806;2022-08-19T06:17:35;26.27;;;18.10;;
35667;SDS011;22158;59.280;17.806;2022-08-19T06:20:11;35.60;;;20.58;;
35667;SDS011;22158;59.280;17.806;2022-08-19T06:22:39;25.90;;;17.98;;
35667;SDS011;22158;59.280;17.806;2022-08-19T06:25:10;31.30;;;18.58;;
35667;SDS011;22158;59.280;17.806;2022-08-19T06:27:37;24.27;;;16.58;;
35667;SDS011;22158;59.280;17.806;2022-08-19T06:30:04;25.73;;;17.30;;
35667;SDS011;22158;59.280;17.806;2022-08-19T06:32:30;24.02;;;15.60;;
35667;SDS011;22158;59.280;17.806;2022-08-19T06:34:55;25.90;;;17.60;;
35667;SDS011;22158;59.280;17.806;2022-08-19T06:37:21;20.95;;;14.50;;
35667;SDS011;22158;59.280;17.806;2022-08-19T06:39:47;23.25;;;15.35;;
35667;SDS011;22158;59.280;17.806;2022-08-19T06:42:13;19.42;;;14.23;;
35667;SDS011;22158;59.280;17.806;2022-08-19T06:44:42;20.58;;;14.23;;
35667;SDS011;22158;59.280;17.806;2022-08-19T06:47:10;20.92;;;15.00;;
35667;SDS011;22158;59.280;17.806;2022-08-19T06:49:39;20.05;;;14.55;;
35667;SDS011;22158;59.280;17.806;2022-08-19T06:52:05;21.95;;;13.95;;
35667;SDS011;22158;59.280;17.806;2022-08-19T06:54:31;22.85;;;14.93;;
35667;SDS011;22158;59.280;17.806;2022-08-19T06:56:58;22.45;;;14.07;;
35667;SDS011;22158;59.280;17.806;2022-08-19T06:59:27;21.98;;;14.35;;
35667;SDS011;22158;59.280;17.806;2022-08-19T07:01:56;20.45;;;12.35;;
35667;SDS011;22158;59.280;17.806;2022-08-19T07:04:23;19.10;;;14.05;;
35667;SDS011;22158;59.280;17.806;2022-08-19T07:06:57;20.05;;;12.85;;
35667;SDS011;22158;59.280;17.806;2022-08-19T07:09:24;14.82;;;11.65;;
35667;SDS011;22158;59.280;17.806;2022-08-19T07:11:51;13.95;;;12.23;;
35667;SDS011;22158;59.280;17.806;2022-08-19T07:14:19;18.65;;;12.43;;
35667;SDS011;22158;59.280;17.806;2022-08-19T07:16:50;20.88;;;13.10;;
35667;SDS011;22158;59.280;17.806;2022-08-19T07:19:17;21.83;;;12.55;;
35667;SDS011;22158;59.280;17.806;2022-08-19T07:21:47;21.10;;;13.32;;
35667;SDS011;22158;59.280;17.806;2022-08-19T07:24:13;16.67;;;12.00;;
35667;SDS011;22158;59.280;17.806;2022-08-19T07:26:41;16.23;;;11.52;;
35667;SDS011;22158;59.280;17.806;2022-08-19T07:29:08;17.35;;;11.75;;
35667;SDS011;22158;59.280;17.806;2022-08-19T07:31:34;18.98;;;11.10;;
35667;SDS011;22158;59.280;17.806;2022-08-19T07:34:02;17.10;;;10.82;;
35667;SDS011;22158;59.280;17.806;2022-08-19T07:36:33;20.48;;;11.32;;
35667;SDS011;22158;59.280;17.806;2022-08-19T07:39:03;14.18;;;10.80;;
35667;SDS011;22158;59.280;17.806;2022-08-19T07:41:31;19.77;;;11.07;;
35667;SDS011;22158;59.280;17.806;2022-08-19T07:43:58;24.88;;;11.63;;
35667;SDS011;22158;59.280;17.806;2022-08-19T07:46:28;15.05;;;11.45;;
35667;SDS011;22158;59.280;17.806;2022-08-19T07:48:57;17.95;;;11.25;;
35667;SDS011;22158;59.280;17.806;2022-08-19T07:51:25;19.05;;;11.10;;
35667;SDS011;22158;59.280;17.806;2022-08-19T07:53:51;17.33;;;10.98;;
35667;SDS011;22158;59.280;17.806;2022-08-19T07:56:18;13.30;;;10.30;;
35667;SDS011;22158;59.280;17.806;2022-08-19T07:58:46;19.25;;;10.50;;
35667;SDS011;22158;59.280;17.806;2022-08-19T08:01:14;15.82;;;10.25;;
35667;SDS011;22158;59.280;17.806;2022-08-19T08:03:51;18.25;;;10.95;;
35667;SDS011;22158;59.280;17.806;2022-08-19T08:06:36;21.88;;;10.75;;
35667;SDS011;22158;59.280;17.806;2022-08-19T08:09:23;18.20;;;11.55;;
35667;SDS011;22158;59.280;17.806;2022-08-19T08:11:59;17.80;;;11.65;;
35667;SDS011;22158;59.280;17.806;2022-08-19T08:14:28;17.20;;;10.88;;
35667;SDS011;22158;59.280;17.806;2022-08-19T08:16:56;18.80;;;11.00;;
35667;SDS011;22158;59.280;17.806;2022-08-19T08:19:23;18.35;;;10.52;;
35667;SDS011;22158;59.280;17.806;2022-08-19T08:21:50;19.85;;;10.13;;
35667;SDS011;22158;59.280;17.806;2022-08-19T08:24:17;14.38;;;10.02;;
35667;SDS011;22158;59.280;17.806;2022-08-19T08:26:43;22.90;;;11.15;;
35667;SDS011;22158;59.280;17.806;2022-08-19T08:29:10;15.90;;;9.60;;
35667;SDS011;22158;59.280;17.806;2022-08-19T08:31:38;16.88;;;8.82;;
35667;SDS011;22158;59.280;17.806;2022-08-19T08:34:05;13.88;;;8.82;;
35667;SDS011;22158;59.280;17.806;2022-08-19T08:36:32;14.50;;;8.60;;
35667;SDS011;22158;59.280;17.806;2022-08-19T08:39:07;18.20;;;9.00;;
35667;SDS011;22158;59.280;17.806;2022-08-19T08:44:17;11.57;;;8.27;;
35667;SDS011;22158;59.280;17.806;2022-08-19T08:46:48;16.52;;;8.68;;
35667;SDS011;22158;59.280;17.806;2022-08-19T08:51:54;13.20;;;8.45;;
35667;SDS011;22158;59.280;17.806;2022-08-19T08:54:34;10.38;;;8.00;;
35667;SDS011;22158;59.280;17.806;2022-08-19T08:57:05;16.60;;;8.23;;
35667;SDS011;22158;59.280;17.806;2022-08-19T08:59:39;19.33;;;9.02;;
35667;SDS011;22158;59.280;17.806;2022-08-19T09:02:06;16.15;;;8.52;;
35667;SDS011;22158;59.280;17.806;2022-08-19T09:04:36;15.07;;;7.93;;
35667;SDS011;22158;59.280;17.806;2022-08-19T09:09:34;13.73;;;8.15;;
35667;SDS011;22158;59.280;17.806;2022-08-19T09:14:55;14.02;;;8.38;;
35667;SDS011;22158;59.280;17.806;2022-08-19T09:17:26;15.05;;;7.45;;
35667;SDS011;22158;59.280;17.806;2022-08-19T09:20:00;17.60;;;7.60;;
35667;SDS011;22158;59.280;17.806;2022-08-19T09:22:32;14.70;;;8.25;;
35667;SDS011;22158;59.280;17.806;2022-08-19T09:24:58;14.82;;;7.47;;
35667;SDS011;22158;59.280;17.806;2022-08-19T09:27:28;11.75;;;7.35;;
35667;SDS011;22158;59.280;17.806;2022-08-19T09:29:54;11.38;;;7.55;;
35667;SDS011;22158;59.280;17.806;2022-08-19T09:32:21;10.57;;;6.88;;
35667;SDS011;22158;59.280;17.806;2022-08-19T09:34:47;13.02;;;7.50;;
35667;SDS011;22158;59.280;17.806;2022-08-19T09:37:13;13.48;;;7.75;;
35667;SDS011;22158;59.280;17.806;2022-08-19T09:39:39;11.90;;;7.55;;
35667;SDS011;22158;59.280;17.806;2022-08-19T09:42:06;9.65;;;6.80;;
35667;SDS011;22158;59.280;17.806;2022-08-19T09:44:37;10.57;;;7.55;;
35667;SDS011;22158;59.280;17.806;2022-08-19T09:47:04;11.00;;;7.32;;
35667;SDS011;22158;59.280;17.806;2022-08-19T09:49:30;13.40;;;6.75;;
35667;SDS011;22158;59.280;17.806;2022-08-19T09:51:56;17.65;;;6.65;;
35667;SDS011;22158;59.280;17.806;2022-08-19T09:54:21;10.98;;;6.93;;
35667;SDS011;22158;59.280;17.806;2022-08-19T09:56:48;13.02;;;6.68;;
35667;SDS011;22158;59.280;17.806;2022-08-19T09:59:13;12.80;;;6.28;;
35667;SDS011;22158;59.280;17.806;2022-08-19T10:01:39;14.18;;;6.30;;
35667;SDS011;22158;59.280;17.806;2022-08-19T10:04:05;10.82;;;7.18;;
35667;SDS011;22158;59.280;17.806;2022-08-19T10:06:35;10.95;;;6.38;;
35667;SDS011;22158;59.280;17.806;2022-08-19T10:09:03;13.00;;;6.50;;
35667;SDS011;22158;59.280;17.806;2022-08-19T10:11:31;11.93;;;6.03;;
35667;SDS011;22158;59.280;17.806;2022-08-19T10:13:57;14.50;;;6.90;;
35667;SDS011;22158;59.280;17.806;2022-08-19T10:16:24;9.07;;;6.93;;
35667;SDS011;22158;59.280;17.806;2022-08-19T10:18:50;11.90;;;7.28;;
35667;SDS011;22158;59.280;17.806;2022-08-19T10:21:19;12.52;;;6.32;;
35667;SDS011;22158;59.280;17.806;2022-08-19T10:23:48;11.15;;;5.55;;
35667;SDS011;22158;59.280;17.806;2022-08-19T10:26:17;12.65;;;6.38;;
35667;SDS011;22158;59.280;17.806;2022-08-19T10:28:47;10.02;;;5.63;;
35667;SDS011;22158;59.280;17.806;2022-08-19T10:31:23;11.60;;;6.03;;
35667;SDS011;22158;59.280;17.806;2022-08-19T10:33:51;10.07;;;6.03;;
35667;SDS011;22158;59.280;17.806;2022-08-19T10:36:23;11.20;;;5.82;;
35667;SDS011;22158;59.280;17.806;2022-08-19T10:38:54;9.20;;;5.93;;
35667;SDS011;22158;59.280;17.806;2022-08-19T10:41:24;12.90;;;5.80;;
35667;SDS011;22158;59.280;17.806;2022-08-19T10:43:56;9.18;;;6.28;;
35667;SDS011;22158;59.280;17.806;2022-08-19T10:46:24;15.75;;;6.93;;
35667;SDS011;22158;59.280;17.806;2022-08-19T10:48:51;21.20;;;6.25;;
35667;SDS011;22158;59.280;17.806;2022-08-19T10:51:18;8.15;;;5.85;;
35667;SDS011;22158;59.280;17.806;2022-08-19T10:54:03;6.43;;;5.28;;
35667;SDS011;22158;59.280;17.806;2022-08-19T10:56:29;8.65;;;5.80;;
35667;SDS011;22158;59.280;17.806;2022-08-19T10:59:16;17.58;;;6.32;;
35667;SDS011;22158;59.280;17.806;2022-08-19T11:01:44;10.52;;;6.03;;
35667;SDS011;22158;59.280;17.806;2022-08-19T11:04:10;8.70;;;5.72;;
35667;SDS011;22158;59.280;17.806;2022-08-19T11:06:41;9.63;;;6.20;;
35667;SDS011;22158;59.280;17.806;2022-08-19T11:09:08;12.00;;;6.20;;
35667;SDS011;22158;59.280;17.806;2022-08-19T11:11:35;15.75;;;6.00;;
35667;SDS011;22158;59.280;17.806;2022-08-19T11:14:05;13.27;;;6.47;;
35667;SDS011;22158;59.280;17.806;2022-08-19T11:16:39;12.45;;;6.38;;
35667;SDS011;22158;59.280;17.806;2022-08-19T11:19:06;12.57;;;5.50;;
35667;SDS011;22158;59.280;17.806;2022-08-19T11:21:35;8.68;;;6.18;;
35667;SDS011;22158;59.280;17.806;2022-08-19T11:24:04;8.88;;;5.82;;
35667;SDS011;22158;59.280;17.806;2022-08-19T11:26:36;8.23;;;5.82;;
35667;SDS011;22158;59.280;17.806;2022-08-19T11:29:03;11.73;;;6.55;;
35667;SDS011;22158;59.280;17.806;2022-08-19T11:31:31;10.88;;;6.10;;
35667;SDS011;22158;59.280;17.806;2022-08-19T11:34:01;10.05;;;5.57;;
35667;SDS011;22158;59.280;17.806;2022-08-19T11:36:28;16.90;;;6.43;;
35667;SDS011;22158;59.280;17.806;2022-08-19T11:38:54;8.90;;;5.80;;
35667;SDS011;22158;59.280;17.806;2022-08-19T11:41:21;10.00;;;6.72;;
35667;SDS011;22158;59.280;17.806;2022-08-19T11:43:48;7.25;;;5.03;;
35667;SDS011;22158;59.280;17.806;2022-08-19T11:46:21;7.35;;;5.05;;
35667;SDS011;22158;59.280;17.806;2022-08-19T11:48:48;14.20;;;6.32;;
35667;SDS011;22158;59.280;17.806;2022-08-19T11:51:19;10.20;;;5.80;;
35667;SDS011;22158;59.280;17.806;2022-08-19T11:53:46;6.82;;;4.95;;
35667;SDS011;22158;59.280;17.806;2022-08-19T11:56:13;8.43;;;5.28;;
35667;SDS011;22158;59.280;17.806;2022-08-19T11:58:38;7.72;;;5.75;;
35667;SDS011;22158;59.280;17.806;2022-08-19T12:01:07;9.88;;;5.65;;
35667;SDS011;22158;59.280;17.806;2022-08-19T12:03:34;6.97;;;5.22;;
35667;SDS011;22158;59.280;17.806;2022-08-19T12:06:07;10.00;;;6.00;;
35667;SDS011;22158;59.280;17.806;2022-08-19T12:08:35;14.27;;;5.85;;
35667;SDS011;22158;59.280;17.806;2022-08-19T12:11:01;11.20;;;6.43;;
35667;SDS011;22158;59.280;17.806;2022-08-19T12:13:27;11.43;;;5.35;;
35667;SDS011;22158;59.280;17.806;2022-08-19T12:15:55;12.93;;;5.90;;
35667;SDS011;22158;59.280;17.806;2022-08-19T12:18:22;7.07;;;5.55;;
35667;SDS011;22158;59.280;17.806;2022-08-19T12:20:50;13.75;;;5.85;;
35667;SDS011;22158;59.280;17.806;2022-08-19T12:23:16;13.27;;;5.93;;
35667;SDS011;22158;59.280;17.806;2022-08-19T12:25:44;11.25;;;6.70;;
35667;SDS011;22158;59.280;17.806;2022-08-19T12:28:14;10.48;;;6.43;;
35667;SDS011;22158;59.280;17.806;2022-08-19T12:30:41;13.82;;;6.60;;
35667;SDS011;22158;59.280;17.806;2022-08-19T12:33:07;11.65;;;5.95;;
35667;SDS011;22158;59.280;17.806;2022-08-19T12:35:33;11.77;;;6.47;;
35667;SDS011;22158;59.280;17.806;2022-08-19T12:37:59;9.30;;;5.95;;
35667;SDS011;22158;59.280;17.806;2022-08-19T12:40:25;11.40;;;6.13;;
35667;SDS011;22158;59.280;17.806;2022-08-19T12:42:51;8.18;;;5.57;;
35667;SDS011;22158;59.280;17.806;2022-08-19T12:45:17;7.88;;;5.75;;
35667;SDS011;22158;59.280;17.806;2022-08-19T12:47:44;14.35;;;6.53;;
35667;SDS011;22158;59.280;17.806;2022-08-19T12:50:11;10.90;;;5.63;;
35667;SDS011;22158;59.280;17.806;2022-08-19T12:52:37;11.73;;;5.75;;
35667;SDS011;22158;59.280;17.806;2022-08-19T12:55:03;10.10;;;5.63;;
35667;SDS011;22158;59.280;17.806;2022-08-19T12:57:31;8.27;;;5.45;;
35667;SDS011;22158;59.280;17.806;2022-08-19T13:00:09;8.88;;;5.75;;
35667;SDS011;22158;59.280;17.806;2022-08-19T13:02:37;13.38;;;6.00;;
35667;SDS011;22158;59.280;17.806;2022-08-19T13:05:04;14.35;;;5.72;;
35667;SDS011;22158;59.280;17.806;2022-08-19T13:07:35;11.23;;;6.47;;
35667;SDS011;22158;59.280;17.806;2022-08-19T13:10:03;11.43;;;5.60;;
35667;SDS011;22158;59.280;17.806;2022-08-19T13:12:30;16.02;;;6.13;;
35667;SDS011;22158;59.280;17.806;2022-08-19T13:14:56;13.45;;;4.97;;
35667;SDS011;22158;59.280;17.806;2022-08-19T13:17:22;12.15;;;6.10;;
35667;SDS011;22158;59.280;17.806;2022-08-19T13:19:48;13.80;;;5.47;;
35667;SDS011;22158;59.280;17.806;2022-08-19T13:22:15;14.02;;;5.70;;
35667;SDS011;22158;59.280;17.806;2022-08-19T13:24:41;7.85;;;6.68;;
35667;SDS011;22158;59.280;17.806;2022-08-19T13:27:07;13.57;;;6.72;;
35667;SDS011;22158;59.280;17.806;2022-08-19T13:29:33;13.38;;;5.90;;
35667;SDS011;22158;59.280;17.806;2022-08-19T13:32:18;13.70;;;6.82;;
35667;SDS011;22158;59.280;17.806;2022-08-19T13:35:02;12.23;;;6.25;;
35667;SDS011;22158;59.280;17.806;2022-08-19T13:37:29;12.48;;;5.95;;
35667;SDS011;22158;59.280;17.806;2022-08-19T13:40:08;9.05;;;5.60;;
35667;SDS011;22158;59.280;17.806;2022-08-19T13:42:37;10.05;;;6.00;;
35667;SDS011;22158;59.280;17.806;2022-08-19T13:45:04;12.20;;;6.95;;
35667;SDS011;22158;59.280;17.806;2022-08-19T13:47:31;10.95;;;6.07;;
35667;SDS011;22158;59.280;17.806;2022-08-19T13:49:59;12.02;;;6.60;;
35667;SDS011;22158;59.280;17.806;2022-08-19T13:52:27;9.43;;;6.32;;
35667;SDS011;22158;59.280;17.806;2022-08-19T13:54:53;11.18;;;6.32;;
35667;SDS011;22158;59.280;17.806;2022-08-19T13:57:18;13.05;;;6.68;;
35667;SDS011;22158;59.280;17.806;2022-08-19T13:59:44;18.45;;;6.53;;
35667;SDS011;22158;59.280;17.806;2022-08-19T14:02:10;9.13;;;7.00;;
35667;SDS011;22158;59.280;17.806;2022-08-19T14:04:36;17.05;;;6.55;;
35667;SDS011;22158;59.280;17.806;2022-08-19T14:07:02;13.15;;;6.82;;
35667;SDS011;22158;59.280;17.806;2022-08-19T14:09:29;10.50;;;6.35;;
35667;SDS011;22158;59.280;17.806;2022-08-19T14:11:55;10.32;;;6.32;;
35667;SDS011;22158;59.280;17.806;2022-08-19T14:14:20;14.85;;;7.50;;
35667;SDS011;22158;59.280;17.806;2022-08-19T14:16:46;16.25;;;7.13;;
35667;SDS011;22158;59.280;17.806;2022-08-19T14:19:13;12.98;;;6.57;;
35667;SDS011;22158;59.280;17.806;2022-08-19T14:21:39;10.63;;;6.75;;
35667;SDS011;22158;59.280;17.806;2022-08-19T14:24:05;13.95;;;7.13;;
35667;SDS011;22158;59.280;17.806;2022-08-19T14:26:32;10.50;;;6.10;;
35667;SDS011;22158;59.280;17.806;2022-08-19T14:28:57;14.35;;;6.53;;
35667;SDS011;22158;59.280;17.806;2022-08-19T14:31:23;17.63;;;7.47;;
35667;SDS011;22158;59.280;17.806;2022-08-19T14:33:50;11.93;;;6.32;;
35667;SDS011;22158;59.280;17.806;2022-08-19T14:36:17;10.90;;;6.35;;
35667;SDS011;22158;59.280;17.806;2022-08-19T14:38:43;11.95;;;6.72;;